createdAt,value
2018-03-29T00:01:23.929Z,15.40
2018-03-29T00:03:51.449Z,18.10
2018-03-29T00:06:18.945Z,21.03
2018-03-29T00:08:46.464Z,17.97
2018-03-29T00:11:14.743Z,23.53
2018-03-29T00:13:42.220Z,19.97
2018-03-29T00:16:09.759Z,22.50
2018-03-29T00:18:37.254Z,24.80
2018-03-29T00:21:04.784Z,22.30
2018-03-29T00:23:32.268Z,21.20
2018-03-29T00:25:59.792Z,23.30
2018-03-29T00:28:28.039Z,27.57
2018-03-29T00:30:55.535Z,21.97
2018-03-29T00:33:23.059Z,24.67
2018-03-29T00:35:50.600Z,23.73
2018-03-29T00:38:18.864Z,25.93
2018-03-29T00:40:46.385Z,24.13
2018-03-29T00:43:13.883Z,27.40
2018-03-29T00:45:41.400Z,29.93
2018-03-29T00:48:09.764Z,25.70
2018-03-29T00:50:37.299Z,27.80
2018-03-29T00:53:16.659Z,25.27
2018-03-29T00:55:44.196Z,28.90
2018-03-29T00:58:11.685Z,27.73
2018-03-29T01:00:39.181Z,25.30
2018-03-29T01:03:06.709Z,23.57
2018-03-29T01:05:34.209Z,23.50
2018-03-29T01:08:01.737Z,24.13
2018-03-29T01:10:29.222Z,23.30
2018-03-29T01:12:56.739Z,23.67
2018-03-29T01:15:24.238Z,22.50
2018-03-29T01:17:51.759Z,26.13
2018-03-29T01:20:19.245Z,23.17
2018-03-29T01:22:46.759Z,22.53
2018-03-29T01:25:15.015Z,25.10
2018-03-29T01:27:42.519Z,23.23
2018-03-29T01:30:10.791Z,26.50
2018-03-29T01:32:39.957Z,27.53
2018-03-29T01:35:07.479Z,22.80
2018-03-29T01:37:35.071Z,24.73
2018-03-29T01:40:02.591Z,24.40
2018-03-29T01:42:30.119Z,23.90
2018-03-29T01:44:58.379Z,25.00
2018-03-29T01:47:25.927Z,21.47
2018-03-29T01:49:53.408Z,21.43
2018-03-29T01:52:20.887Z,24.47
2018-03-29T01:54:48.414Z,18.83
2018-03-29T01:57:15.907Z,21.00
2018-03-29T01:59:43.438Z,23.30
2018-03-29T02:02:11.694Z,22.50
2018-03-29T02:04:39.222Z,20.37
2018-03-29T02:07:06.954Z,25.07
2018-03-29T02:09:34.497Z,24.27
2018-03-29T02:12:02.004Z,23.27
2018-03-29T02:14:30.299Z,24.53
2018-03-29T02:16:57.779Z,24.67
2018-03-29T02:19:25.319Z,27.73
2018-03-29T02:21:56.863Z,28.33
2018-03-29T02:24:25.743Z,25.53
2018-03-29T02:26:53.235Z,22.27
2018-03-29T02:29:20.760Z,28.20
2018-03-29T02:31:49.017Z,21.33
2018-03-29T02:34:16.512Z,23.10
2018-03-29T02:36:44.804Z,27.57
2018-03-29T02:39:13.268Z,30.23
2018-03-29T02:41:40.763Z,24.40
2018-03-29T02:44:09.020Z,22.70
2018-03-29T02:46:36.536Z,25.07
2018-03-29T02:49:04.027Z,27.10
2018-03-29T02:51:31.551Z,26.70
2018-03-29T02:53:59.041Z,28.13
2018-03-29T02:56:27.342Z,23.47
2018-03-29T02:58:54.828Z,24.47
2018-03-29T03:01:22.360Z,24.10
2018-03-29T03:03:49.846Z,24.00
2018-03-29T03:06:18.138Z,25.13
2018-03-29T03:08:46.395Z,24.90
2018-03-29T03:11:13.910Z,25.03
2018-03-29T03:13:41.399Z,30.23
2018-03-29T03:16:08.923Z,29.53
2018-03-29T03:18:36.415Z,28.60
2018-03-29T03:21:04.711Z,29.13
2018-03-29T03:23:32.201Z,29.20
2018-03-29T03:25:59.728Z,31.23
2018-03-29T03:28:27.250Z,25.80
2018-03-29T03:30:54.770Z,29.20
2018-03-29T03:33:23.047Z,30.00
2018-03-29T03:35:50.539Z,24.27
2018-03-29T03:38:18.820Z,23.50
2018-03-29T03:40:46.324Z,25.40
2018-03-29T03:43:13.843Z,23.47
2018-03-29T03:45:41.327Z,24.70
2018-03-29T03:48:08.846Z,25.90
2018-03-29T03:50:36.336Z,26.20
2018-03-29T03:53:03.856Z,27.30
2018-03-29T03:55:32.104Z,28.87
2018-03-29T03:57:59.623Z,24.83
2018-03-29T04:00:27.879Z,23.83
2018-03-29T04:02:55.418Z,25.97
2018-03-29T04:05:22.915Z,23.83
2018-03-29T04:07:50.431Z,26.87
2018-03-29T04:10:17.919Z,25.70
2018-03-29T04:12:45.435Z,27.67
2018-03-29T04:15:12.921Z,28.30
2018-03-29T04:17:40.459Z,25.37
2018-03-29T04:20:07.959Z,25.53
2018-03-29T04:22:35.476Z,28.30
2018-03-29T04:25:02.961Z,27.80
2018-03-29T04:27:30.545Z,23.00
2018-03-29T04:29:58.033Z,25.33
2018-03-29T04:32:25.539Z,28.47
2018-03-29T04:34:53.836Z,27.33
2018-03-29T04:37:21.324Z,30.90
2018-03-29T04:39:48.853Z,27.90
2018-03-29T04:42:17.112Z,26.60
2018-03-29T04:44:44.643Z,29.80
2018-03-29T04:47:12.127Z,32.80
2018-03-29T04:49:39.641Z,28.10
2018-03-29T04:52:07.133Z,31.47
2018-03-29T04:54:34.675Z,30.60
2018-03-29T04:57:02.154Z,30.83
2018-03-29T04:59:29.670Z,33.60
2018-03-29T05:01:57.159Z,30.57
2018-03-29T05:04:24.690Z,29.33
2018-03-29T05:06:52.958Z,32.20
2018-03-29T05:09:20.484Z,31.30
2018-03-29T05:11:47.967Z,34.87
2018-03-29T05:14:15.495Z,29.37
2018-03-29T05:16:42.984Z,31.40
2018-03-29T05:19:10.552Z,31.47
2018-03-29T05:21:38.800Z,33.40
2018-03-29T05:24:06.587Z,35.00
2018-03-29T05:26:39.060Z,35.07
2018-03-29T05:29:06.600Z,35.10
2018-03-29T05:31:34.117Z,39.13
2018-03-29T05:34:01.618Z,37.67
2018-03-29T05:36:29.196Z,36.37
2018-03-29T05:38:56.676Z,34.57
2018-03-29T05:41:24.196Z,33.53
2018-03-29T05:43:51.687Z,32.60
2018-03-29T05:46:20.010Z,32.70
2018-03-29T05:48:47.501Z,33.07
2018-03-29T05:51:15.012Z,33.60
2018-03-29T05:53:42.510Z,31.77
2018-03-29T05:56:10.022Z,26.73
2018-03-29T05:58:37.504Z,29.03
2018-03-29T06:01:05.028Z,31.07
2018-03-29T06:03:32.526Z,25.50
2018-03-29T06:06:00.048Z,22.63
2018-03-29T06:08:27.544Z,23.13
2018-03-29T06:10:55.073Z,23.23
2018-03-29T06:13:22.553Z,27.70
2018-03-29T06:15:56.611Z,22.90
2018-03-29T06:18:24.108Z,24.87
2018-03-29T06:20:51.625Z,25.73
2018-03-29T06:23:19.143Z,25.20
2018-03-29T06:25:47.411Z,20.30
2018-03-29T06:28:14.892Z,22.57
2018-03-29T06:30:42.411Z,24.20
2018-03-29T06:33:09.915Z,23.10
2018-03-29T06:35:38.160Z,22.63
2018-03-29T06:38:05.671Z,24.37
2018-03-29T06:40:33.930Z,23.40
2018-03-29T06:43:01.451Z,20.43
2018-03-29T06:45:28.935Z,24.30
2018-03-29T06:47:56.450Z,20.10
2018-03-29T06:50:23.956Z,20.67
2018-03-29T06:52:51.484Z,24.13
2018-03-29T06:55:18.971Z,25.30
2018-03-29T06:57:46.496Z,22.60
2018-03-29T07:00:14.099Z,20.60
2018-03-29T07:02:41.622Z,21.60
2018-03-29T07:05:19.041Z,21.37
2018-03-29T07:07:46.566Z,23.70
2018-03-29T07:10:14.071Z,19.77
2018-03-29T07:12:41.599Z,23.90
2018-03-29T07:15:09.091Z,21.53
2018-03-29T07:17:37.391Z,23.73
2018-03-29T07:20:05.640Z,24.13
2018-03-29T07:22:33.152Z,23.27
2018-03-29T07:25:01.400Z,20.33
2018-03-29T07:27:29.024Z,23.57
2018-03-29T07:29:56.507Z,22.40
2018-03-29T07:32:24.024Z,22.07
2018-03-29T07:34:51.511Z,19.53
2018-03-29T07:37:19.830Z,18.30
2018-03-29T07:39:47.357Z,18.83
2018-03-29T07:42:14.879Z,21.27
2018-03-29T07:44:42.372Z,21.93
2018-03-29T07:47:09.909Z,19.77
2018-03-29T07:49:37.403Z,19.80
2018-03-29T07:52:04.941Z,20.73
2018-03-29T07:54:33.201Z,21.73
2018-03-29T07:57:00.814Z,24.60
2018-03-29T07:59:28.316Z,20.90
2018-03-29T08:01:55.833Z,22.30
2018-03-29T08:04:23.315Z,23.73
2018-03-29T08:06:51.600Z,17.67
2018-03-29T08:09:19.872Z,19.30
2018-03-29T08:11:47.421Z,20.27
2018-03-29T08:14:14.951Z,20.50
2018-03-29T08:16:42.442Z,20.20
2018-03-29T08:19:09.969Z,18.30
2018-03-29T08:21:37.454Z,16.97
2018-03-29T08:24:05.739Z,16.30
2018-03-29T08:26:33.226Z,20.03
2018-03-29T08:29:00.756Z,19.17
2018-03-29T08:31:28.244Z,17.50
2018-03-29T08:33:55.827Z,18.13
2018-03-29T08:36:24.075Z,16.40
2018-03-29T08:38:51.607Z,16.07
2018-03-29T08:41:19.096Z,14.93
2018-03-29T08:43:46.616Z,14.63
2018-03-29T08:46:14.108Z,14.00
2018-03-29T08:48:42.387Z,13.80
2018-03-29T08:51:10.632Z,9.83
2018-03-29T08:53:38.155Z,7.77
2018-03-29T08:56:05.660Z,5.87
2018-03-29T08:58:33.197Z,4.27
2018-03-29T09:01:01.445Z,4.70
2018-03-29T09:03:28.936Z,5.37
2018-03-29T09:05:56.464Z,5.93
2018-03-29T09:08:23.954Z,5.20
2018-03-29T09:10:51.478Z,7.23
2018-03-29T09:13:18.962Z,6.40
2018-03-29T09:15:46.485Z,6.13
2018-03-29T09:18:13.975Z,5.70
2018-03-29T09:20:41.512Z,5.97
2018-03-29T09:23:08.995Z,5.60
2018-03-29T09:25:36.518Z,5.13
2018-03-29T09:28:04.015Z,5.97
2018-03-29T09:30:31.548Z,5.33
2018-03-29T09:32:59.036Z,6.20
2018-03-29T09:35:26.526Z,8.10
2018-03-29T09:37:54.050Z,7.03
2018-03-29T09:40:22.362Z,6.00
2018-03-29T09:42:49.853Z,5.60
2018-03-29T09:45:17.370Z,6.90
2018-03-29T09:47:44.885Z,5.57
2018-03-29T09:50:12.395Z,6.80
2018-03-29T09:52:39.875Z,5.13
2018-03-29T09:55:07.407Z,5.20
2018-03-29T09:57:34.888Z,5.70
2018-03-29T10:00:02.371Z,4.30
2018-03-29T10:02:31.824Z,4.00
2018-03-29T10:05:03.037Z,3.53
2018-03-29T10:07:34.480Z,4.20
2018-03-29T10:10:01.961Z,4.50
2018-03-29T10:12:29.479Z,3.77
2018-03-29T10:14:56.963Z,4.00
2018-03-29T10:17:24.481Z,2.70
2018-03-29T10:19:51.974Z,3.50
2018-03-29T10:22:19.501Z,3.10
2018-03-29T10:24:46.987Z,2.77
2018-03-29T10:27:14.511Z,2.17
2018-03-29T10:29:42.763Z,3.63
2018-03-29T10:32:10.272Z,3.20
2018-03-29T10:34:37.751Z,2.50
2018-03-29T10:37:06.044Z,2.53
2018-03-29T10:39:34.290Z,2.37
2018-03-29T10:42:01.802Z,2.30
2018-03-29T10:44:30.063Z,2.20
2018-03-29T10:46:57.606Z,2.50
2018-03-29T10:49:25.091Z,6.30
2018-03-29T10:51:52.583Z,1.90
2018-03-29T10:54:20.110Z,2.43
2018-03-29T10:56:47.603Z,3.10
2018-03-29T10:59:15.120Z,2.40
2018-03-29T11:01:43.372Z,2.30
2018-03-29T11:04:11.000Z,3.67
2018-03-29T11:06:38.511Z,3.53
2018-03-29T11:09:06.031Z,3.33
2018-03-29T11:11:34.301Z,8.20
2018-03-29T11:14:02.595Z,2.10
2018-03-29T11:16:31.039Z,1.30
2018-03-29T11:18:58.548Z,5.60
2018-03-29T11:21:26.039Z,2.77
2018-03-29T11:23:53.589Z,1.87
2018-03-29T11:26:21.071Z,3.40
2018-03-29T11:28:49.355Z,2.97
2018-03-29T11:31:16.832Z,1.60
2018-03-29T11:33:45.124Z,1.10
2018-03-29T11:36:13.373Z,1.53
2018-03-29T11:38:40.883Z,1.73
2018-03-29T11:41:08.388Z,6.00
2018-03-29T11:43:35.959Z,1.90
2018-03-29T11:46:03.438Z,5.03
2018-03-29T11:48:30.928Z,4.30
2018-03-29T11:50:58.482Z,1.80
2018-03-29T11:53:25.970Z,2.50
2018-03-29T11:55:53.498Z,2.00
2018-03-29T11:58:20.984Z,1.53
2018-03-29T12:00:48.503Z,1.77
2018-03-29T12:03:15.984Z,2.60
2018-03-29T12:05:43.512Z,2.03
2018-03-29T12:08:11.002Z,2.50
2018-03-29T12:10:38.516Z,5.37
2018-03-29T12:13:06.008Z,2.40
2018-03-29T12:15:33.542Z,3.53
2018-03-29T12:18:01.033Z,2.37
2018-03-29T12:20:29.371Z,3.60
2018-03-29T12:22:57.072Z,1.93
2018-03-29T12:25:24.592Z,3.80
2018-03-29T12:27:52.075Z,2.90
2018-03-29T12:30:19.583Z,3.10
2018-03-29T12:32:47.078Z,2.77
2018-03-29T12:35:15.331Z,3.87
2018-03-29T12:37:42.885Z,3.80
2018-03-29T12:40:10.367Z,2.30
2018-03-29T12:42:37.892Z,1.83
2018-03-29T12:45:05.448Z,2.57
2018-03-29T12:47:33.235Z,2.33
2018-03-29T12:50:01.484Z,2.50
2018-03-29T12:52:28.994Z,2.83
2018-03-29T12:58:06.968Z,2.90
2018-03-29T13:00:34.454Z,3.63
2018-03-29T13:03:01.970Z,2.35
2018-03-29T13:05:29.466Z,2.30
2018-03-29T13:07:57.019Z,4.70
2018-03-29T13:10:24.508Z,2.13
2018-03-29T13:12:52.862Z,5.03
2018-03-29T13:15:20.348Z,1.70
2018-03-29T13:17:47.868Z,1.90
2018-03-29T13:20:15.377Z,1.40
2018-03-29T13:22:42.903Z,4.30
2018-03-29T13:25:10.396Z,4.90
2018-03-29T13:27:37.943Z,1.60
2018-03-29T13:30:05.432Z,1.70
2018-03-29T13:32:33.001Z,0.90
2018-03-29T13:35:00.559Z,1.60
2018-03-29T13:37:28.083Z,3.40
2018-03-29T13:39:55.584Z,5.50
2018-03-29T13:42:23.179Z,5.13
2018-03-29T13:44:50.685Z,11.23
2018-03-29T13:47:18.242Z,3.53
2018-03-29T13:49:45.759Z,4.10
2018-03-29T13:52:13.263Z,5.97
2018-03-29T13:54:40.775Z,6.80
2018-03-29T13:57:08.263Z,4.67
2018-03-29T13:59:35.795Z,3.60
2018-03-29T14:02:03.282Z,6.20
2018-03-29T14:04:30.802Z,4.20
2018-03-29T14:06:58.290Z,7.93
2018-03-29T14:09:25.814Z,5.30
2018-03-29T14:11:53.297Z,4.23
2018-03-29T14:14:20.831Z,4.43
2018-03-29T14:16:48.319Z,3.77
2018-03-29T14:19:15.853Z,4.10
2018-03-29T14:21:43.351Z,5.97
2018-03-29T14:24:10.865Z,4.90
2018-03-29T14:26:38.363Z,3.50
2018-03-29T14:29:05.895Z,3.80
2018-03-29T14:31:33.396Z,2.70
2018-03-29T14:34:00.911Z,4.50
2018-03-29T14:36:28.411Z,3.00
2018-03-29T14:38:56.702Z,6.00
2018-03-29T14:41:24.187Z,8.77
2018-03-29T14:43:52.435Z,3.40
2018-03-29T14:46:20.040Z,2.77
2018-03-29T14:48:48.300Z,4.57
2018-03-29T14:51:15.843Z,7.83
2018-03-29T14:53:43.323Z,3.50
2018-03-29T14:56:10.855Z,5.53
2018-03-29T14:58:38.335Z,3.97
2018-03-29T15:01:05.857Z,3.70
2018-03-29T15:03:33.355Z,3.43
2018-03-29T15:06:01.648Z,3.60
2018-03-29T15:08:29.160Z,3.63
2018-03-29T15:10:56.720Z,5.40
2018-03-29T15:13:24.216Z,3.27
2018-03-29T15:15:51.754Z,3.40
2018-03-29T15:18:19.317Z,5.20
2018-03-29T15:20:47.609Z,4.17
2018-03-29T15:23:15.911Z,3.60
2018-03-29T15:25:45.806Z,4.23
2018-03-29T15:28:13.294Z,5.17
2018-03-29T15:30:41.562Z,4.63
2018-03-29T15:33:10.796Z,6.03
2018-03-29T15:35:38.588Z,6.93
2018-03-29T15:38:06.111Z,6.03
2018-03-29T15:40:33.655Z,4.80
2018-03-29T15:43:01.170Z,5.30
2018-03-29T15:45:33.617Z,7.40
2018-03-29T15:48:02.267Z,4.40
2018-03-29T15:50:32.316Z,6.43
2018-03-29T15:52:59.840Z,7.53
2018-03-29T15:55:27.348Z,4.03
2018-03-29T15:58:03.632Z,5.03
2018-03-29T16:00:31.180Z,4.80
2018-03-29T16:02:58.715Z,4.83
2018-03-29T16:05:27.503Z,7.03
2018-03-29T16:07:55.035Z,5.33
2018-03-29T16:10:22.513Z,4.43
2018-03-29T16:12:50.027Z,5.83
2018-03-29T16:15:18.259Z,3.57
2018-03-29T16:17:46.585Z,5.13
2018-03-29T16:20:14.070Z,3.60
2018-03-29T16:22:41.602Z,6.40
2018-03-29T16:25:09.851Z,5.80
2018-03-29T16:27:37.387Z,5.43
2018-03-29T16:30:04.875Z,8.50
2018-03-29T16:32:33.159Z,4.07
2018-03-29T16:35:00.636Z,4.17
2018-03-29T16:37:28.192Z,5.10
2018-03-29T16:39:55.670Z,3.13
2018-03-29T16:42:23.147Z,4.40
2018-03-29T16:44:50.679Z,3.97
2018-03-29T16:47:18.931Z,8.10
2018-03-29T16:49:47.053Z,4.93
2018-03-29T16:52:15.302Z,8.63
2018-03-29T16:54:42.835Z,7.87
2018-03-29T16:57:10.319Z,3.67
2018-03-29T16:59:37.834Z,2.73
2018-03-29T17:02:05.313Z,7.23
2018-03-29T17:04:32.835Z,2.83
2018-03-29T17:07:00.313Z,3.03
2018-03-29T17:09:27.834Z,3.63
2018-03-29T17:11:55.312Z,7.03
2018-03-29T17:14:23.597Z,3.60
2018-03-29T17:16:51.126Z,6.50
2018-03-29T17:19:18.587Z,5.30
2018-03-29T17:21:46.076Z,6.37
2018-03-29T17:24:13.571Z,4.83
2018-03-29T17:26:41.048Z,5.33
2018-03-29T17:29:08.554Z,6.63
2018-03-29T17:31:36.043Z,3.10
2018-03-29T17:34:03.543Z,2.93
2018-03-29T17:36:31.172Z,6.50
2018-03-29T17:38:58.655Z,3.17
2018-03-29T17:41:26.167Z,5.60
2018-03-29T17:43:53.647Z,4.17
2018-03-29T17:46:21.155Z,3.23
2018-03-29T17:48:48.652Z,3.47
2018-03-29T17:51:16.167Z,3.53
2018-03-29T17:53:44.415Z,4.00
2018-03-29T17:56:11.927Z,4.93
2018-03-29T17:58:51.431Z,3.73
2018-03-29T18:01:18.983Z,4.03
2018-03-29T18:03:46.532Z,8.07
2018-03-29T18:06:14.807Z,3.73
2018-03-29T18:08:42.284Z,4.40
2018-03-29T18:11:09.807Z,6.27
2018-03-29T18:13:37.283Z,4.30
2018-03-29T18:16:04.815Z,4.20
2018-03-29T18:18:32.296Z,3.20
2018-03-29T18:20:59.848Z,8.43
2018-03-29T18:23:28.119Z,5.40
2018-03-29T18:25:56.392Z,5.53
2018-03-29T18:28:23.903Z,8.03
2018-03-29T18:30:52.160Z,4.53
2018-03-29T18:33:19.675Z,7.20
2018-03-29T18:35:47.155Z,6.17
2018-03-29T18:38:14.683Z,11.07
2018-03-29T18:40:42.226Z,7.37
2018-03-29T18:43:11.313Z,7.40
2018-03-29T18:45:38.998Z,5.80
2018-03-29T18:48:06.512Z,5.13
2018-03-29T18:50:33.983Z,6.50
2018-03-29T18:53:01.524Z,7.00
2018-03-29T18:55:29.010Z,6.13
2018-03-29T18:57:56.526Z,5.20
2018-03-29T19:00:24.008Z,5.53
2018-03-29T19:02:51.516Z,9.10
2018-03-29T19:05:28.040Z,6.83
2018-03-29T19:07:56.347Z,10.73
2018-03-29T19:10:23.823Z,7.13
2018-03-29T19:12:51.355Z,7.77
2018-03-29T19:15:18.835Z,5.70
2018-03-29T19:17:47.080Z,5.80
2018-03-29T19:20:14.594Z,6.77
2018-03-29T19:22:42.848Z,5.70
2018-03-29T19:25:10.469Z,4.63
2018-03-29T19:27:37.981Z,5.03
2018-03-29T19:30:05.493Z,8.57
2018-03-29T19:32:33.014Z,8.23
2018-03-29T19:35:00.517Z,9.47
2018-03-29T19:37:28.027Z,6.70
2018-03-29T19:39:56.344Z,6.43
2018-03-29T19:42:23.842Z,10.30
2018-03-29T19:44:51.355Z,6.90
2018-03-29T19:47:18.880Z,7.77
2018-03-29T19:49:46.393Z,5.17
2018-03-29T19:52:14.643Z,7.40
2018-03-29T19:54:42.822Z,7.30
2018-03-29T19:57:10.292Z,8.50
2018-03-29T19:59:37.808Z,5.93
2018-03-29T20:02:05.296Z,11.90
2018-03-29T20:04:32.823Z,7.03
2018-03-29T20:07:00.307Z,14.30
2018-03-29T20:09:28.013Z,10.57
2018-03-29T20:11:56.252Z,7.03
2018-03-29T20:14:23.745Z,10.87
2018-03-29T20:16:51.317Z,7.47
2018-03-29T20:19:18.767Z,9.43
2018-03-29T20:21:46.344Z,8.10
2018-03-29T20:24:13.819Z,8.10
2018-03-29T20:26:41.343Z,15.80
2018-03-29T20:29:08.823Z,7.00
2018-03-29T20:31:36.334Z,6.40
2018-03-29T20:34:03.815Z,8.40
2018-03-29T20:36:31.323Z,7.37
2018-03-29T20:38:59.156Z,8.57
2018-03-29T20:41:26.655Z,6.97
2018-03-29T20:43:54.907Z,5.10
2018-03-29T20:46:22.422Z,6.70
2018-03-29T20:48:50.684Z,9.40
2018-03-29T20:51:18.220Z,5.70
2018-03-29T20:53:49.685Z,7.10
2018-03-29T20:56:17.158Z,12.40
2018-03-29T20:58:44.668Z,8.10
2018-03-29T21:01:12.163Z,5.70
2018-03-29T21:03:40.399Z,7.07
2018-03-29T21:06:07.899Z,5.60
2018-03-29T21:08:37.075Z,6.30
2018-03-29T21:11:06.307Z,5.23
2018-03-29T21:13:41.666Z,4.17
2018-03-29T21:16:09.221Z,5.90
2018-03-29T21:21:28.745Z,6.10
2018-03-29T21:23:56.896Z,4.93
2018-03-29T21:26:25.216Z,3.63
2018-03-29T21:28:54.525Z,4.40
2018-03-29T21:31:22.192Z,9.97
2018-03-29T21:33:49.811Z,7.50
2018-03-29T21:36:17.287Z,6.63
2018-03-29T21:38:45.532Z,7.10
2018-03-29T21:41:13.071Z,8.37
2018-03-29T21:43:40.555Z,4.33
2018-03-29T21:46:09.396Z,7.23
2018-03-29T21:48:36.880Z,7.17
2018-03-29T21:51:04.410Z,8.20
2018-03-29T21:53:31.897Z,9.93
2018-03-29T21:55:59.425Z,5.00
2018-03-29T21:58:26.911Z,7.10
2018-03-29T22:00:54.422Z,5.77
2018-03-29T22:03:21.909Z,7.37
2018-03-29T22:05:49.423Z,7.23
2018-03-29T22:08:16.900Z,8.83
2018-03-29T22:10:44.411Z,7.27
2018-03-29T22:13:13.297Z,6.60
2018-03-29T22:15:41.719Z,6.67
2018-03-29T22:18:09.200Z,9.83
2018-03-29T22:20:37.498Z,5.77
2018-03-29T22:23:05.758Z,11.43
2018-03-29T22:25:33.242Z,12.57
2018-03-29T22:28:00.750Z,7.70
2018-03-29T22:30:28.224Z,7.80
2018-03-29T22:32:56.510Z,7.20
2018-03-29T22:35:23.991Z,7.70
2018-03-29T22:37:51.503Z,7.50
2018-03-29T22:40:19.013Z,9.47
2018-03-29T22:42:46.524Z,9.13
2018-03-29T22:45:14.011Z,5.27
2018-03-29T22:47:41.529Z,9.80
2018-03-29T22:50:09.015Z,6.97
2018-03-29T22:52:36.528Z,6.40
2018-03-29T22:55:04.007Z,5.00
2018-03-29T22:57:31.518Z,6.20
2018-03-29T22:59:59.705Z,6.03
2018-03-29T23:02:28.692Z,7.10
2018-03-29T23:04:57.988Z,10.83
2018-03-29T23:07:26.456Z,6.13
2018-03-29T23:09:55.881Z,4.90
2018-03-29T23:12:23.495Z,6.53
2018-03-29T23:14:51.010Z,5.90
2018-03-29T23:17:18.492Z,6.07
2018-03-29T23:19:45.999Z,4.50
2018-03-29T23:22:14.239Z,6.53
2018-03-29T23:24:41.747Z,7.77
2018-03-29T23:27:09.227Z,9.03
2018-03-29T23:29:37.508Z,5.90
2018-03-29T23:32:04.983Z,5.20
2018-03-29T23:34:32.463Z,5.30
2018-03-29T23:37:00.736Z,7.63
2018-03-29T23:39:28.243Z,7.33
2018-03-29T23:41:55.715Z,6.67
2018-03-29T23:44:23.247Z,8.87
2018-03-29T23:46:52.144Z,8.70
2018-03-29T23:49:19.807Z,5.67
2018-03-29T23:51:47.292Z,8.00
2018-03-29T23:54:14.803Z,4.30
2018-03-29T23:56:42.276Z,7.77
2018-03-29T23:59:09.791Z,9.17
